sensor_id;sensor_type;location;lat;lon;timestamp;pressure;altitude;pressure_sealevel;temperature;humidity
6514;BME280;3290;47.716;9.070;2023-03-31T00:01:48;96486.47;;;11.86;98.75
6514;BME280;3290;47.716;9.070;2023-03-31T00:04:17;96481.78;;;11.88;98.18
6514;BME280;3290;47.716;9.070;2023-03-31T00:06:42;96484.56;;;11.81;99.50
6514;BME280;3290;47.716;9.070;2023-03-31T00:09:10;96480.22;;;11.75;99.30
6514;BME280;3290;47.716;9.070;2023-03-31T00:11:37;96474.75;;;11.88;98.38
6514;BME280;3290;47.716;9.070;2023-03-31T00:14:04;96479.59;;;11.96;98.25
6514;BME280;3290;47.716;9.070;2023-03-31T00:16:33;96476.03;;;12.02;98.38
6514;BME280;3290;47.716;9.070;2023-03-31T00:18:58;96465.72;;;12.12;97.28
6514;BME280;3290;47.716;9.070;2023-03-31T00:21:26;96455.22;;;12.12;96.99
6514;BME280;3290;47.716;9.070;2023-03-31T00:24:03;96445.19;;;12.09;97.38
6514;BME280;3290;47.716;9.070;2023-03-31T00:26:29;96442.00;;;12.07;97.20
6514;BME280;3290;47.716;9.070;2023-03-31T00:28:56;96437.91;;;12.27;96.52
6514;BME280;3290;47.716;9.070;2023-03-31T00:31:22;96444.63;;;12.35;96.32
6514;BME280;3290;47.716;9.070;2023-03-31T00:33:48;96439.47;;;12.12;98.10
6514;BME280;3290;47.716;9.070;2023-03-31T00:36:13;96435.84;;;12.29;96.13
6514;BME280;3290;47.716;9.070;2023-03-31T00:38:45;96427.66;;;12.42;95.55
6514;BME280;3290;47.716;9.070;2023-03-31T00:41:12;96420.88;;;12.30;96.20
6514;BME280;3290;47.716;9.070;2023-03-31T00:43:38;96419.84;;;12.31;95.70
6514;BME280;3290;47.716;9.070;2023-03-31T00:46:40;96409.91;;;12.33;95.90
6514;BME280;3290;47.716;9.070;2023-03-31T00:49:15;96401.72;;;12.29;96.33
6514;BME280;3290;47.716;9.070;2023-03-31T00:51:47;96403.22;;;12.25;96.38
6514;BME280;3290;47.716;9.070;2023-03-31T00:54:13;96396.97;;;12.42;95.58
6514;BME280;3290;47.716;9.070;2023-03-31T00:56:41;96397.66;;;12.38;95.77
6514;BME280;3290;47.716;9.070;2023-03-31T00:59:10;96386.69;;;12.41;95.11
6514;BME280;3290;47.716;9.070;2023-03-31T01:01:38;96395.34;;;12.58;95.05
6514;BME280;3290;47.716;9.070;2023-03-31T01:04:07;96411.34;;;12.56;95.46
6514;BME280;3290;47.716;9.070;2023-03-31T01:06:42;96428.25;;;12.60;95.06
6514;BME280;3290;47.716;9.070;2023-03-31T01:09:11;96456.84;;;12.57;95.42
6514;BME280;3290;47.716;9.070;2023-03-31T01:11:39;96458.88;;;12.38;96.63
6514;BME280;3290;47.716;9.070;2023-03-31T01:14:04;96462.13;;;12.45;98.31
6514;BME280;3290;47.716;9.070;2023-03-31T01:16:30;96454.31;;;12.62;99.92
6514;BME280;3290;47.716;9.070;2023-03-31T01:18:58;96439.97;;;12.69;100.00
6514;BME280;3290;47.716;9.070;2023-03-31T01:21:47;96435.72;;;12.68;100.00
6514;BME280;3290;47.716;9.070;2023-03-31T01:41:41;96415.63;;;12.90;100.00
6514;BME280;3290;47.716;9.070;2023-03-31T01:44:19;96409.66;;;13.16;100.00
6514;BME280;3290;47.716;9.070;2023-03-31T01:46:56;96397.44;;;13.26;100.00
6514;BME280;3290;47.716;9.070;2023-03-31T01:49:33;96386.97;;;13.31;100.00
6514;BME280;3290;47.716;9.070;2023-03-31T01:52:25;96379.31;;;13.08;100.00
6514;BME280;3290;47.716;9.070;2023-03-31T01:55:11;96380.28;;;12.86;100.00
6514;BME280;3290;47.716;9.070;2023-03-31T01:57:46;96367.41;;;12.84;100.00
6514;BME280;3290;47.716;9.070;2023-03-31T02:00:16;96367.69;;;12.72;100.00
6514;BME280;3290;47.716;9.070;2023-03-31T02:05:12;96342.84;;;12.79;100.00
6514;BME280;3290;47.716;9.070;2023-03-31T02:07:47;96342.41;;;12.82;100.00
6514;BME280;3290;47.716;9.070;2023-03-31T02:10:16;96341.25;;;12.78;100.00
6514;BME280;3290;47.716;9.070;2023-03-31T02:12:43;96340.25;;;12.63;100.00
6514;BME280;3290;47.716;9.070;2023-03-31T02:15:12;96342.72;;;12.53;100.00
6514;BME280;3290;47.716;9.070;2023-03-31T02:17:39;96331.09;;;12.33;100.00
6514;BME280;3290;47.716;9.070;2023-03-31T02:20:11;96329.66;;;12.41;100.00
6514;BME280;3290;47.716;9.070;2023-03-31T02:22:47;96323.78;;;12.35;100.00
6514;BME280;3290;47.716;9.070;2023-03-31T02:25:16;96325.13;;;12.37;100.00
6514;BME280;3290;47.716;9.070;2023-03-31T02:27:46;96318.59;;;12.39;100.00
6514;BME280;3290;47.716;9.070;2023-03-31T02:30:14;96310.66;;;12.35;100.00
6514;BME280;3290;47.716;9.070;2023-03-31T02:32:41;96325.53;;;12.45;100.00
6514;BME280;3290;47.716;9.070;2023-03-31T02:35:14;96335.88;;;12.52;100.00
6514;BME280;3290;47.716;9.070;2023-03-31T02:37:41;96317.56;;;12.57;100.00
6514;BME280;3290;47.716;9.070;2023-03-31T02:40:11;96294.63;;;12.52;100.00
6514;BME280;3290;47.716;9.070;2023-03-31T02:42:40;96299.25;;;12.45;100.00
6514;BME280;3290;47.716;9.070;2023-03-31T02:45:44;96296.22;;;12.53;100.00
6514;BME280;3290;47.716;9.070;2023-03-31T02:48:19;96276.97;;;12.48;100.00
6514;BME280;3290;47.716;9.070;2023-03-31T03:09:25;96208.59;;;12.64;100.00
6514;BME280;3290;47.716;9.070;2023-03-31T03:12:10;96189.78;;;12.72;100.00
6514;BME280;3290;47.716;9.070;2023-03-31T03:14:45;96196.13;;;12.76;100.00
6514;BME280;3290;47.716;9.070;2023-03-31T03:17:53;96190.38;;;12.79;100.00
6514;BME280;3290;47.716;9.070;2023-03-31T03:20:19;96189.91;;;12.82;100.00
6514;BME280;3290;47.716;9.070;2023-03-31T03:22:45;96174.31;;;12.54;100.00
6514;BME280;3290;47.716;9.070;2023-03-31T03:25:12;96177.19;;;12.74;100.00
6514;BME280;3290;47.716;9.070;2023-03-31T03:27:38;96155.56;;;12.67;100.00
6514;BME280;3290;47.716;9.070;2023-03-31T03:30:06;96150.84;;;12.69;100.00
6514;BME280;3290;47.716;9.070;2023-03-31T03:32:32;96152.38;;;12.65;100.00
6514;BME280;3290;47.716;9.070;2023-03-31T03:35:02;96137.56;;;12.59;100.00
6514;BME280;3290;47.716;9.070;2023-03-31T03:37:27;96144.53;;;12.49;100.00
6514;BME280;3290;47.716;9.070;2023-03-31T03:39:53;96125.06;;;12.45;100.00
6514;BME280;3290;47.716;9.070;2023-03-31T03:42:19;96117.34;;;12.38;100.00
6514;BME280;3290;47.716;9.070;2023-03-31T03:44:44;96120.91;;;12.49;100.00
6514;BME280;3290;47.716;9.070;2023-03-31T03:47:10;96114.69;;;12.55;100.00
6514;BME280;3290;47.716;9.070;2023-03-31T03:49:35;96103.34;;;12.54;100.00
6514;BME280;3290;47.716;9.070;2023-03-31T03:52:00;96087.03;;;12.52;100.00
6514;BME280;3290;47.716;9.070;2023-03-31T03:54:26;96087.81;;;12.74;100.00
6514;BME280;3290;47.716;9.070;2023-03-31T03:56:51;96075.84;;;12.83;100.00
6514;BME280;3290;47.716;9.070;2023-03-31T03:59:17;96062.28;;;12.96;99.58
6514;BME280;3290;47.716;9.070;2023-03-31T04:01:42;96067.88;;;12.78;100.00
6514;BME280;3290;47.716;9.070;2023-03-31T04:04:07;96045.19;;;12.67;100.00
6514;BME280;3290;47.716;9.070;2023-03-31T04:06:33;96034.31;;;12.59;100.00
6514;BME280;3290;47.716;9.070;2023-03-31T04:08:59;96030.97;;;12.68;100.00
6514;BME280;3290;47.716;9.070;2023-03-31T04:11:24;96018.03;;;12.83;100.00
6514;BME280;3290;47.716;9.070;2023-03-31T04:13:50;96004.34;;;12.81;100.00
6514;BME280;3290;47.716;9.070;2023-03-31T04:16:16;96003.28;;;12.82;100.00
6514;BME280;3290;47.716;9.070;2023-03-31T04:18:41;96001.09;;;12.79;100.00
6514;BME280;3290;47.716;9.070;2023-03-31T04:21:16;95993.09;;;12.90;100.00
6514;BME280;3290;47.716;9.070;2023-03-31T04:23:47;95993.31;;;12.84;99.74
6514;BME280;3290;47.716;9.070;2023-03-31T04:26:15;95989.75;;;13.00;98.25
6514;BME280;3290;47.716;9.070;2023-03-31T04:28:41;95977.38;;;12.95;99.77
6514;BME280;3290;47.716;9.070;2023-03-31T04:31:15;95974.03;;;12.78;100.00
6514;BME280;3290;47.716;9.070;2023-03-31T04:33:50;95962.34;;;12.65;98.39
6514;BME280;3290;47.716;9.070;2023-03-31T04:36:15;95975.25;;;12.66;98.14
6514;BME280;3290;47.716;9.070;2023-03-31T04:38:45;95970.47;;;12.63;97.13
6514;BME280;3290;47.716;9.070;2023-03-31T04:41:19;95961.31;;;12.92;95.80
6514;BME280;3290;47.716;9.070;2023-03-31T04:43:45;95948.75;;;12.99;95.21
6514;BME280;3290;47.716;9.070;2023-03-31T04:46:11;95942.56;;;12.83;95.85
6514;BME280;3290;47.716;9.070;2023-03-31T04:48:36;95923.31;;;12.78;96.91
6514;BME280;3290;47.716;9.070;2023-03-31T04:51:02;95917.91;;;12.89;96.03
6514;BME280;3290;47.716;9.070;2023-03-31T04:53:27;95909.00;;;12.64;95.29
6514;BME280;3290;47.716;9.070;2023-03-31T04:55:52;95888.31;;;13.04;94.51
6514;BME280;3290;47.716;9.070;2023-03-31T04:58:18;95880.41;;;13.09;93.40
6514;BME280;3290;47.716;9.070;2023-03-31T05:00:43;95884.28;;;12.60;95.54
6514;BME280;3290;47.716;9.070;2023-03-31T05:03:09;95892.66;;;12.57;95.68
6514;BME280;3290;47.716;9.070;2023-03-31T05:05:35;95872.91;;;12.81;94.96
6514;BME280;3290;47.716;9.070;2023-03-31T05:08:01;95875.75;;;12.79;95.50
6514;BME280;3290;47.716;9.070;2023-03-31T05:10:27;95866.13;;;12.95;94.56
6514;BME280;3290;47.716;9.070;2023-03-31T05:12:53;95879.59;;;13.03;94.57
6514;BME280;3290;47.716;9.070;2023-03-31T05:15:18;95879.56;;;12.98;93.74
6514;BME280;3290;47.716;9.070;2023-03-31T05:17:44;95875.09;;;12.94;93.27
6514;BME280;3290;47.716;9.070;2023-03-31T05:20:10;95867.28;;;13.09;93.20
6514;BME280;3290;47.716;9.070;2023-03-31T05:22:47;95863.63;;;13.15;93.11
6514;BME280;3290;47.716;9.070;2023-03-31T05:25:13;95863.50;;;12.95;93.41
6514;BME280;3290;47.716;9.070;2023-03-31T05:27:43;95885.97;;;13.12;93.00
6514;BME280;3290;47.716;9.070;2023-03-31T05:30:10;95878.63;;;13.14;93.46
6514;BME280;3290;47.716;9.070;2023-03-31T05:32:35;95885.34;;;12.95;96.42
6514;BME280;3290;47.716;9.070;2023-03-31T05:35:01;95910.28;;;12.88;97.44
6514;BME280;3290;47.716;9.070;2023-03-31T05:37:26;95927.59;;;12.58;100.00
6514;BME280;3290;47.716;9.070;2023-03-31T05:39:52;95926.34;;;12.60;100.00
6514;BME280;3290;47.716;9.070;2023-03-31T05:42:18;95912.81;;;12.78;100.00
6514;BME280;3290;47.716;9.070;2023-03-31T05:44:44;95910.03;;;12.58;100.00
6514;BME280;3290;47.716;9.070;2023-03-31T05:47:10;95917.94;;;12.63;100.00
6514;BME280;3290;47.716;9.070;2023-03-31T05:49:36;95921.31;;;12.59;100.00
6514;BME280;3290;47.716;9.070;2023-03-31T05:52:03;95925.69;;;12.48;100.00
6514;BME280;3290;47.716;9.070;2023-03-31T05:54:28;95930.53;;;12.61;100.00
6514;BME280;3290;47.716;9.070;2023-03-31T05:56:54;95932.34;;;12.30;100.00
6514;BME280;3290;47.716;9.070;2023-03-31T05:59:19;95916.31;;;12.57;100.00
6514;BME280;3290;47.716;9.070;2023-03-31T06:01:45;95902.16;;;12.63;100.00
6514;BME280;3290;47.716;9.070;2023-03-31T06:04:10;95905.91;;;12.67;100.00
6514;BME280;3290;47.716;9.070;2023-03-31T06:06:36;95898.69;;;12.53;100.00
6514;BME280;3290;47.716;9.070;2023-03-31T06:09:03;95875.34;;;12.25;100.00
6514;BME280;3290;47.716;9.070;2023-03-31T06:11:28;95874.56;;;12.30;100.00
6514;BME280;3290;47.716;9.070;2023-03-31T06:13:53;95883.06;;;12.41;100.00
6514;BME280;3290;47.716;9.070;2023-03-31T06:16:19;95880.25;;;12.48;100.00
6514;BME280;3290;47.716;9.070;2023-03-31T06:18:44;95892.91;;;12.56;100.00
6514;BME280;3290;47.716;9.070;2023-03-31T06:21:12;95873.16;;;12.48;100.00
6514;BME280;3290;47.716;9.070;2023-03-31T06:23:38;95886.28;;;12.17;100.00
6514;BME280;3290;47.716;9.070;2023-03-31T06:26:06;95881.13;;;12.27;100.00
6514;BME280;3290;47.716;9.070;2023-03-31T06:28:35;95873.00;;;12.29;100.00
6514;BME280;3290;47.716;9.070;2023-03-31T06:31:11;95857.25;;;12.29;100.00
6514;BME280;3290;47.716;9.070;2023-03-31T06:33:39;95853.41;;;12.41;100.00
6514;BME280;3290;47.716;9.070;2023-03-31T06:36:05;95864.75;;;12.46;100.00
6514;BME280;3290;47.716;9.070;2023-03-31T06:38:32;95861.19;;;12.31;100.00
6514;BME280;3290;47.716;9.070;2023-03-31T06:40:58;95861.13;;;12.57;100.00
6514;BME280;3290;47.716;9.070;2023-03-31T06:43:23;95862.16;;;12.51;100.00
6514;BME280;3290;47.716;9.070;2023-03-31T06:45:48;95859.56;;;12.61;100.00
6514;BME280;3290;47.716;9.070;2023-03-31T06:48:14;95884.44;;;12.18;100.00
6514;BME280;3290;47.716;9.070;2023-03-31T06:50:40;95917.47;;;11.88;100.00
6514;BME280;3290;47.716;9.070;2023-03-31T06:53:09;95908.88;;;11.92;100.00
6514;BME280;3290;47.716;9.070;2023-03-31T06:55:35;95896.97;;;11.59;100.00
6514;BME280;3290;47.716;9.070;2023-03-31T06:58:01;95897.97;;;11.79;100.00
6514;BME280;3290;47.716;9.070;2023-03-31T07:00:27;95858.25;;;11.70;100.00
6514;BME280;3290;47.716;9.070;2023-03-31T07:02:52;95863.25;;;11.98;100.00
6514;BME280;3290;47.716;9.070;2023-03-31T07:05:18;95856.03;;;12.10;100.00
6514;BME280;3290;47.716;9.070;2023-03-31T07:07:51;95839.25;;;12.47;100.00
6514;BME280;3290;47.716;9.070;2023-03-31T07:10:16;95850.28;;;12.80;100.00
6514;BME280;3290;47.716;9.070;2023-03-31T07:12:42;95852.56;;;13.08;96.19
6514;BME280;3290;47.716;9.070;2023-03-31T07:15:07;95857.34;;;13.20;95.61
6514;BME280;3290;47.716;9.070;2023-03-31T07:17:33;95895.22;;;13.20;94.42
6514;BME280;3290;47.716;9.070;2023-03-31T07:19:58;95930.50;;;13.23;95.94
6514;BME280;3290;47.716;9.070;2023-03-31T07:22:24;95952.13;;;13.40;98.40
6514;BME280;3290;47.716;9.070;2023-03-31T07:24:50;95965.44;;;13.19;100.00
6514;BME280;3290;47.716;9.070;2023-03-31T07:27:15;95955.69;;;13.15;100.00
6514;BME280;3290;47.716;9.070;2023-03-31T07:29:40;95949.66;;;13.14;100.00
6514;BME280;3290;47.716;9.070;2023-03-31T07:32:06;95966.53;;;13.23;98.96
6514;BME280;3290;47.716;9.070;2023-03-31T07:34:31;95983.97;;;13.34;99.09
6514;BME280;3290;47.716;9.070;2023-03-31T07:36:56;95991.44;;;13.11;100.00
6514;BME280;3290;47.716;9.070;2023-03-31T07:39:22;95986.34;;;13.40;100.00
6514;BME280;3290;47.716;9.070;2023-03-31T07:41:58;95959.28;;;13.45;100.00
6514;BME280;3290;47.716;9.070;2023-03-31T07:44:23;95922.31;;;13.71;100.00
6514;BME280;3290;47.716;9.070;2023-03-31T07:46:49;95962.47;;;14.02;100.00
6514;BME280;3290;47.716;9.070;2023-03-31T07:49:14;95964.47;;;13.81;100.00
6514;BME280;3290;47.716;9.070;2023-03-31T07:51:40;95958.28;;;14.11;99.53
6514;BME280;3290;47.716;9.070;2023-03-31T07:54:06;95953.38;;;14.69;96.58
6514;BME280;3290;47.716;9.070;2023-03-31T07:56:31;95962.03;;;14.45;94.93
6514;BME280;3290;47.716;9.070;2023-03-31T07:58:57;95968.94;;;14.56;94.81
6514;BME280;3290;47.716;9.070;2023-03-31T08:01:22;95955.75;;;14.61;96.05
6514;BME280;3290;47.716;9.070;2023-03-31T08:03:50;95948.34;;;14.63;95.23
6514;BME280;3290;47.716;9.070;2023-03-31T08:06:19;95947.88;;;14.81;93.66
6514;BME280;3290;47.716;9.070;2023-03-31T08:08:46;95934.94;;;14.79;94.88
6514;BME280;3290;47.716;9.070;2023-03-31T08:11:11;95940.47;;;15.07;91.84
6514;BME280;3290;47.716;9.070;2023-03-31T08:13:36;95956.28;;;15.32;90.58
6514;BME280;3290;47.716;9.070;2023-03-31T08:16:02;95969.22;;;15.38;85.05
6514;BME280;3290;47.716;9.070;2023-03-31T08:18:28;95951.19;;;15.75;81.99
6514;BME280;3290;47.716;9.070;2023-03-31T08:20:53;95944.38;;;15.39;82.26
6514;BME280;3290;47.716;9.070;2023-03-31T08:23:18;95948.31;;;15.52;83.20
6514;BME280;3290;47.716;9.070;2023-03-31T08:25:44;95948.13;;;15.09;82.95
6514;BME280;3290;47.716;9.070;2023-03-31T08:28:09;95938.09;;;14.81;83.51
6514;BME280;3290;47.716;9.070;2023-03-31T08:30:38;95930.47;;;15.14;81.40
6514;BME280;3290;47.716;9.070;2023-03-31T08:33:04;95924.06;;;15.40;80.08
6514;BME280;3290;47.716;9.070;2023-03-31T08:35:30;95927.78;;;15.24;79.48
6514;BME280;3290;47.716;9.070;2023-03-31T08:37:55;95926.03;;;15.82;79.57
6514;BME280;3290;47.716;9.070;2023-03-31T08:40:23;95920.59;;;16.17;75.95
6514;BME280;3290;47.716;9.070;2023-03-31T08:42:52;95930.06;;;15.70;77.32
6514;BME280;3290;47.716;9.070;2023-03-31T08:45:26;95917.41;;;16.15;75.21
6514;BME280;3290;47.716;9.070;2023-03-31T08:48:01;95928.72;;;15.72;76.86
6514;BME280;3290;47.716;9.070;2023-03-31T08:50:31;95931.44;;;15.48;78.13
6514;BME280;3290;47.716;9.070;2023-03-31T08:55:58;95928.50;;;16.22;75.60
6514;BME280;3290;47.716;9.070;2023-03-31T09:00:54;95921.28;;;16.75;72.60
6514;BME280;3290;47.716;9.070;2023-03-31T09:03:35;95919.63;;;16.84;72.65
6514;BME280;3290;47.716;9.070;2023-03-31T09:06:07;95910.00;;;15.64;74.81
6514;BME280;3290;47.716;9.070;2023-03-31T09:08:41;95922.94;;;15.65;75.33
6514;BME280;3290;47.716;9.070;2023-03-31T09:13:52;95920.59;;;16.17;76.04
6514;BME280;3290;47.716;9.070;2023-03-31T09:19:24;95897.34;;;16.14;72.96
6514;BME280;3290;47.716;9.070;2023-03-31T09:21:54;95906.47;;;15.88;75.86
6514;BME280;3290;47.716;9.070;2023-03-31T09:24:27;95931.50;;;15.23;79.10
6514;BME280;3290;47.716;9.070;2023-03-31T09:27:04;95913.56;;;15.20;79.01
6514;BME280;3290;47.716;9.070;2023-03-31T09:32:23;95886.66;;;14.83;84.24
6514;BME280;3290;47.716;9.070;2023-03-31T09:34:55;95880.88;;;14.96;83.74
6514;BME280;3290;47.716;9.070;2023-03-31T09:37:24;95882.19;;;14.40;88.46
6514;BME280;3290;47.716;9.070;2023-03-31T09:39:51;95885.06;;;14.03;87.83
6514;BME280;3290;47.716;9.070;2023-03-31T09:42:17;95893.16;;;13.92;88.88
6514;BME280;3290;47.716;9.070;2023-03-31T09:44:45;95874.53;;;14.03;88.68
6514;BME280;3290;47.716;9.070;2023-03-31T09:47:35;95871.88;;;14.13;90.80
6514;BME280;3290;47.716;9.070;2023-03-31T09:50:05;95887.91;;;13.97;85.96
6514;BME280;3290;47.716;9.070;2023-03-31T09:52:34;95898.13;;;13.89;87.45
6514;BME280;3290;47.716;9.070;2023-03-31T09:55:03;95891.84;;;13.95;88.39
6514;BME280;3290;47.716;9.070;2023-03-31T09:57:33;95898.28;;;13.53;92.32
6514;BME280;3290;47.716;9.070;2023-03-31T10:02:50;95901.44;;;13.55;91.74
6514;BME280;3290;47.716;9.070;2023-03-31T10:07:48;95889.41;;;13.73;93.64
6514;BME280;3290;47.716;9.070;2023-03-31T10:10:30;95887.78;;;13.62;94.91
6514;BME280;3290;47.716;9.070;2023-03-31T10:12:57;95898.72;;;13.30;93.28
6514;BME280;3290;47.716;9.070;2023-03-31T10:15:27;95877.25;;;13.53;95.32
6514;BME280;3290;47.716;9.070;2023-03-31T10:17:52;95871.63;;;13.34;94.69
6514;BME280;3290;47.716;9.070;2023-03-31T10:21:05;95852.13;;;13.30;89.36
6514;BME280;3290;47.716;9.070;2023-03-31T10:23:16;95830.00;;;14.41;83.33
6514;BME280;3290;47.716;9.070;2023-03-31T10:25:43;95828.13;;;14.86;83.22
6514;BME280;3290;47.716;9.070;2023-03-31T10:28:11;95809.34;;;14.98;81.41
6514;BME280;3290;47.716;9.070;2023-03-31T10:30:46;95814.72;;;15.56;77.47
6514;BME280;3290;47.716;9.070;2023-03-31T10:33:16;95822.97;;;16.30;76.74
6514;BME280;3290;47.716;9.070;2023-03-31T10:35:43;95818.38;;;16.74;73.79
6514;BME280;3290;47.716;9.070;2023-03-31T10:38:23;95805.88;;;17.30;73.60
6514;BME280;3290;47.716;9.070;2023-03-31T10:40:51;95819.13;;;16.79;75.99
6514;BME280;3290;47.716;9.070;2023-03-31T10:43:20;95812.94;;;15.89;79.87
6514;BME280;3290;47.716;9.070;2023-03-31T10:48:18;95806.19;;;15.06;81.77
6514;BME280;3290;47.716;9.070;2023-03-31T10:50:44;95799.16;;;14.57;84.49
6514;BME280;3290;47.716;9.070;2023-03-31T10:53:14;95787.84;;;14.41;85.28
6514;BME280;3290;47.716;9.070;2023-03-31T11:04:04;95813.06;;;13.78;89.79
6514;BME280;3290;47.716;9.070;2023-03-31T11:06:48;95770.72;;;13.95;90.65
6514;BME280;3290;47.716;9.070;2023-03-31T11:09:34;95778.88;;;13.93;91.96
6514;BME280;3290;47.716;9.070;2023-03-31T11:17:40;95769.44;;;14.07;92.15
6514;BME280;3290;47.716;9.070;2023-03-31T11:23:19;95733.03;;;13.99;88.98
6514;BME280;3290;47.716;9.070;2023-03-31T11:32:42;95746.25;;;14.09;89.29
6514;BME280;3290;47.716;9.070;2023-03-31T11:37:49;95775.44;;;13.98;88.54
6514;BME280;3290;47.716;9.070;2023-03-31T11:43:02;95783.88;;;13.95;86.89
6514;BME280;3290;47.716;9.070;2023-03-31T11:45:37;95780.44;;;13.94;84.97
6514;BME280;3290;47.716;9.070;2023-03-31T11:48:13;95761.25;;;14.13;84.05
6514;BME280;3290;47.716;9.070;2023-03-31T11:50:44;95744.00;;;14.80;79.66
6514;BME280;3290;47.716;9.070;2023-03-31T11:53:19;95723.09;;;15.94;73.96
6514;BME280;3290;47.716;9.070;2023-03-31T11:55:50;95719.81;;;16.40;68.03
6514;BME280;3290;47.716;9.070;2023-03-31T11:58:23;95711.28;;;16.43;65.62
6514;BME280;3290;47.716;9.070;2023-03-31T12:01:17;95705.94;;;16.25;63.45
6514;BME280;3290;47.716;9.070;2023-03-31T12:03:50;95687.28;;;16.86;62.09
6514;BME280;3290;47.716;9.070;2023-03-31T12:06:20;95672.75;;;17.07;60.91
6514;BME280;3290;47.716;9.070;2023-03-31T12:08:53;95665.22;;;17.19;58.42
6514;BME280;3290;47.716;9.070;2023-03-31T12:11:48;95659.91;;;17.19;58.40
6514;BME280;3290;47.716;9.070;2023-03-31T12:16:50;95658.84;;;17.88;56.09
6514;BME280;3290;47.716;9.070;2023-03-31T12:19:21;95657.59;;;18.30;55.18
6514;BME280;3290;47.716;9.070;2023-03-31T12:22:02;95651.63;;;18.38;51.80
6514;BME280;3290;47.716;9.070;2023-03-31T12:24:30;95652.63;;;18.42;52.01
6514;BME280;3290;47.716;9.070;2023-03-31T12:27:13;95648.44;;;18.09;49.54
6514;BME280;3290;47.716;9.070;2023-03-31T12:29:56;95650.13;;;18.01;48.29
6514;BME280;3290;47.716;9.070;2023-03-31T12:32:27;95659.09;;;17.55;50.22
6514;BME280;3290;47.716;9.070;2023-03-31T12:43:24;95764.16;;;15.77;50.45
6514;BME280;3290;47.716;9.070;2023-03-31T12:51:19;95853.44;;;13.28;72.30
6514;BME280;3290;47.716;9.070;2023-03-31T12:54:19;95808.59;;;13.69;70.98
6514;BME280;3290;47.716;9.070;2023-03-31T12:57:03;95815.50;;;14.09;68.16
6514;BME280;3290;47.716;9.070;2023-03-31T12:59:39;95801.78;;;13.98;62.40
6514;BME280;3290;47.716;9.070;2023-03-31T13:04:34;95773.78;;;14.90;58.55
6514;BME280;3290;47.716;9.070;2023-03-31T13:07:01;95757.94;;;14.85;57.27
6514;BME280;3290;47.716;9.070;2023-03-31T13:09:43;95749.13;;;15.29;52.88
6514;BME280;3290;47.716;9.070;2023-03-31T13:12:15;95760.84;;;15.57;50.94
6514;BME280;3290;47.716;9.070;2023-03-31T13:14:43;95757.44;;;15.94;51.63
6514;BME280;3290;47.716;9.070;2023-03-31T13:17:24;95763.28;;;16.57;51.39
6514;BME280;3290;47.716;9.070;2023-03-31T13:19:50;95757.50;;;16.50;51.93
6514;BME280;3290;47.716;9.070;2023-03-31T13:22:36;95743.38;;;16.37;52.33
6514;BME280;3290;47.716;9.070;2023-03-31T13:35:38;95755.50;;;15.66;53.79
6514;BME280;3290;47.716;9.070;2023-03-31T13:38:12;95742.38;;;15.52;54.60
6514;BME280;3290;47.716;9.070;2023-03-31T13:40:54;95743.78;;;15.82;54.88
6514;BME280;3290;47.716;9.070;2023-03-31T13:49:42;95731.94;;;15.32;55.54
6514;BME280;3290;47.716;9.070;2023-03-31T13:52:10;95742.03;;;15.15;55.93
6514;BME280;3290;47.716;9.070;2023-03-31T14:06:24;95743.44;;;14.93;60.24
6514;BME280;3290;47.716;9.070;2023-03-31T14:08:56;95741.81;;;15.02;60.75
6514;BME280;3290;47.716;9.070;2023-03-31T14:11:29;95745.81;;;14.94;60.57
6514;BME280;3290;47.716;9.070;2023-03-31T14:14:16;95743.13;;;15.14;60.53
6514;BME280;3290;47.716;9.070;2023-03-31T14:16:51;95733.59;;;15.08;61.63
6514;BME280;3290;47.716;9.070;2023-03-31T14:20:20;95725.66;;;15.66;58.68
6514;BME280;3290;47.716;9.070;2023-03-31T14:23:13;95707.97;;;16.84;56.31
6514;BME280;3290;47.716;9.070;2023-03-31T14:26:10;95687.09;;;17.24;54.57
6514;BME280;3290;47.716;9.070;2023-03-31T14:31:44;95699.44;;;16.41;58.10
6514;BME280;3290;47.716;9.070;2023-03-31T14:37:24;95694.53;;;15.63;61.51
6514;BME280;3290;47.716;9.070;2023-03-31T14:39:53;95685.41;;;15.46;61.69
6514;BME280;3290;47.716;9.070;2023-03-31T14:42:31;95669.50;;;15.56;60.69
6514;BME280;3290;47.716;9.070;2023-03-31T14:45:03;95659.78;;;15.46;61.02
6514;BME280;3290;47.716;9.070;2023-03-31T14:47:29;95658.53;;;15.39;62.02
6514;BME280;3290;47.716;9.070;2023-03-31T14:50:02;95645.22;;;15.11;60.48
6514;BME280;3290;47.716;9.070;2023-03-31T14:52:30;95632.72;;;15.31;60.68
6514;BME280;3290;47.716;9.070;2023-03-31T14:54:57;95630.47;;;15.05;60.56
6514;BME280;3290;47.716;9.070;2023-03-31T14:57:28;95634.81;;;15.34;59.58
6514;BME280;3290;47.716;9.070;2023-03-31T14:59:55;95627.91;;;15.38;60.24
6514;BME280;3290;47.716;9.070;2023-03-31T15:02:35;95644.72;;;15.09;59.16
6514;BME280;3290;47.716;9.070;2023-03-31T15:05:06;95657.63;;;15.10;59.59
6514;BME280;3290;47.716;9.070;2023-03-31T15:07:34;95680.72;;;14.80;62.99
6514;BME280;3290;47.716;9.070;2023-03-31T15:10:01;95691.06;;;14.62;67.80
6514;BME280;3290;47.716;9.070;2023-03-31T15:12:28;95718.56;;;13.72;84.07
6514;BME280;3290;47.716;9.070;2023-03-31T15:15:01;95773.69;;;13.18;91.57
6514;BME280;3290;47.716;9.070;2023-03-31T15:17:29;95839.94;;;12.69;98.80
6514;BME280;3290;47.716;9.070;2023-03-31T15:19:58;95852.47;;;12.26;96.82
6514;BME280;3290;47.716;9.070;2023-03-31T15:22:26;95853.88;;;12.07;96.85
6514;BME280;3290;47.716;9.070;2023-03-31T15:24:53;95851.91;;;11.66;96.09
6514;BME280;3290;47.716;9.070;2023-03-31T15:27:34;95849.97;;;11.57;97.42
6514;BME280;3290;47.716;9.070;2023-03-31T15:30:06;95850.50;;;11.38;96.46
6514;BME280;3290;47.716;9.070;2023-03-31T15:32:35;95840.81;;;11.17;96.46
6514;BME280;3290;47.716;9.070;2023-03-31T15:35:02;95852.41;;;11.21;98.03
6514;BME280;3290;47.716;9.070;2023-03-31T15:37:30;95821.56;;;11.75;99.18
6514;BME280;3290;47.716;9.070;2023-03-31T15:40:00;95794.34;;;11.13;98.90
6514;BME280;3290;47.716;9.070;2023-03-31T15:42:31;95774.91;;;11.30;96.66
6514;BME280;3290;47.716;9.070;2023-03-31T15:47:49;95765.97;;;11.78;98.92
6514;BME280;3290;47.716;9.070;2023-03-31T15:50:15;95776.19;;;11.49;97.42
6514;BME280;3290;47.716;9.070;2023-03-31T15:52:52;95788.47;;;11.22;97.45
6514;BME280;3290;47.716;9.070;2023-03-31T15:55:28;95795.38;;;11.54;96.57
6514;BME280;3290;47.716;9.070;2023-03-31T15:57:57;95793.22;;;11.46;93.88
6514;BME280;3290;47.716;9.070;2023-03-31T16:03:56;95791.31;;;11.68;92.43